sensor_id;sensor_type;location;lat;lon;timestamp;P1;durP1;ratioP1;P2;durP2;ratioP2
3050;SDS011;1535;51.098;6.414;2022-11-21T00:01:53;22.53;;;19.53;;
3050;SDS011;1535;51.098;6.414;2022-11-21T00:04:20;21.50;;;19.20;;
3050;SDS011;1535;51.098;6.414;2022-11-21T00:06:49;27.63;;;21.50;;
3050;SDS011;1535;51.098;6.414;2022-11-21T00:09:16;21.93;;;19.47;;
3050;SDS011;1535;51.098;6.414;2022-11-21T00:11:44;36.87;;;20.30;;
3050;SDS011;1535;51.098;6.414;2022-11-21T00:14:11;33.40;;;19.93;;
3050;SDS011;1535;51.098;6.414;2022-11-21T00:16:39;28.53;;;19.43;;
3050;SDS011;1535;51.098;6.414;2022-11-21T00:19:06;26.47;;;18.97;;
3050;SDS011;1535;51.098;6.414;2022-11-21T00:21:33;30.37;;;19.73;;
3050;SDS011;1535;51.098;6.414;2022-11-21T00:24:01;26.93;;;19.67;;
3050;SDS011;1535;51.098;6.414;2022-11-21T00:26:28;19.00;;;17.37;;
3050;SDS011;1535;51.098;6.414;2022-11-21T00:28:54;27.93;;;18.90;;
3050;SDS011;1535;51.098;6.414;2022-11-21T00:31:22;25.57;;;18.77;;
3050;SDS011;1535;51.098;6.414;2022-11-21T00:33:50;25.53;;;17.93;;
3050;SDS011;1535;51.098;6.414;2022-11-21T00:36:17;21.93;;;18.33;;
3050;SDS011;1535;51.098;6.414;2022-11-21T00:38:44;23.33;;;18.73;;
3050;SDS011;1535;51.098;6.414;2022-11-21T00:41:11;22.50;;;17.50;;
3050;SDS011;1535;51.098;6.414;2022-11-21T00:43:37;42.97;;;16.60;;
3050;SDS011;1535;51.098;6.414;2022-11-21T00:46:05;18.87;;;16.67;;
3050;SDS011;1535;51.098;6.414;2022-11-21T00:48:32;20.30;;;17.30;;
3050;SDS011;1535;51.098;6.414;2022-11-21T00:51:00;18.30;;;16.60;;
3050;SDS011;1535;51.098;6.414;2022-11-21T00:53:27;29.93;;;17.60;;
3050;SDS011;1535;51.098;6.414;2022-11-21T00:55:54;29.60;;;17.67;;
3050;SDS011;1535;51.098;6.414;2022-11-21T00:58:21;32.20;;;18.87;;
3050;SDS011;1535;51.098;6.414;2022-11-21T01:00:48;21.80;;;16.97;;
3050;SDS011;1535;51.098;6.414;2022-11-21T01:03:17;26.53;;;17.20;;
3050;SDS011;1535;51.098;6.414;2022-11-21T01:05:44;33.43;;;17.70;;
3050;SDS011;1535;51.098;6.414;2022-11-21T01:08:12;28.33;;;18.13;;
3050;SDS011;1535;51.098;6.414;2022-11-21T01:10:39;23.37;;;17.70;;
3050;SDS011;1535;51.098;6.414;2022-11-21T01:13:06;22.73;;;16.53;;
3050;SDS011;1535;51.098;6.414;2022-11-21T01:15:33;21.57;;;16.67;;
3050;SDS011;1535;51.098;6.414;2022-11-21T01:18:00;23.23;;;16.23;;
3050;SDS011;1535;51.098;6.414;2022-11-21T01:20:26;20.33;;;16.43;;
3050;SDS011;1535;51.098;6.414;2022-11-21T01:22:53;27.93;;;17.00;;
3050;SDS011;1535;51.098;6.414;2022-11-21T01:25:22;18.57;;;15.70;;
3050;SDS011;1535;51.098;6.414;2022-11-21T01:27:49;33.13;;;16.47;;
3050;SDS011;1535;51.098;6.414;2022-11-21T01:30:17;25.53;;;15.53;;
3050;SDS011;1535;51.098;6.414;2022-11-21T01:32:46;22.73;;;16.63;;
3050;SDS011;1535;51.098;6.414;2022-11-21T01:35:14;21.90;;;16.10;;
3050;SDS011;1535;51.098;6.414;2022-11-21T01:37:41;29.33;;;17.33;;
3050;SDS011;1535;51.098;6.414;2022-11-21T01:40:09;21.70;;;17.60;;
3050;SDS011;1535;51.098;6.414;2022-11-21T01:42:50;20.73;;;18.47;;
3050;SDS011;1535;51.098;6.414;2022-11-21T01:48:20;19.20;;;16.47;;
3050;SDS011;1535;51.098;6.414;2022-11-21T01:50:50;22.80;;;15.93;;
3050;SDS011;1535;51.098;6.414;2022-11-21T01:53:20;28.73;;;17.53;;
3050;SDS011;1535;51.098;6.414;2022-11-21T01:55:47;24.47;;;16.60;;
3050;SDS011;1535;51.098;6.414;2022-11-21T01:58:16;28.13;;;16.93;;
3050;SDS011;1535;51.098;6.414;2022-11-21T02:00:43;18.07;;;16.27;;
3050;SDS011;1535;51.098;6.414;2022-11-21T02:03:13;17.20;;;15.60;;
3050;SDS011;1535;51.098;6.414;2022-11-21T02:05:43;17.97;;;16.20;;
3050;SDS011;1535;51.098;6.414;2022-11-21T02:08:12;18.50;;;15.77;;
3050;SDS011;1535;51.098;6.414;2022-11-21T02:10:42;21.73;;;14.77;;
3050;SDS011;1535;51.098;6.414;2022-11-21T02:13:16;17.30;;;14.57;;
3050;SDS011;1535;51.098;6.414;2022-11-21T02:15:43;16.17;;;14.47;;
3050;SDS011;1535;51.098;6.414;2022-11-21T02:18:11;17.67;;;14.53;;
3050;SDS011;1535;51.098;6.414;2022-11-21T02:20:38;16.17;;;14.40;;
3050;SDS011;1535;51.098;6.414;2022-11-21T02:23:11;23.20;;;14.73;;
3050;SDS011;1535;51.098;6.414;2022-11-21T02:25:48;25.57;;;14.20;;
3050;SDS011;1535;51.098;6.414;2022-11-21T02:28:17;28.60;;;14.77;;
3050;SDS011;1535;51.098;6.414;2022-11-21T02:30:47;15.07;;;13.87;;
3050;SDS011;1535;51.098;6.414;2022-11-21T02:33:15;19.63;;;14.47;;
3050;SDS011;1535;51.098;6.414;2022-11-21T02:35:42;15.93;;;14.10;;
3050;SDS011;1535;51.098;6.414;2022-11-21T02:38:10;17.13;;;15.30;;
3050;SDS011;1535;51.098;6.414;2022-11-21T02:40:43;16.27;;;14.73;;
3050;SDS011;1535;51.098;6.414;2022-11-21T02:43:17;22.07;;;15.90;;
3050;SDS011;1535;51.098;6.414;2022-11-21T02:45:48;15.13;;;14.03;;
3050;SDS011;1535;51.098;6.414;2022-11-21T02:48:14;18.20;;;14.80;;
3050;SDS011;1535;51.098;6.414;2022-11-21T02:50:42;21.63;;;15.83;;
3050;SDS011;1535;51.098;6.414;2022-11-21T02:53:10;16.20;;;14.70;;
3050;SDS011;1535;51.098;6.414;2022-11-21T02:55:38;17.07;;;15.30;;
3050;SDS011;1535;51.098;6.414;2022-11-21T02:58:05;17.60;;;15.90;;
3050;SDS011;1535;51.098;6.414;2022-11-21T03:00:35;27.77;;;16.80;;
3050;SDS011;1535;51.098;6.414;2022-11-21T03:03:04;16.33;;;15.00;;
3050;SDS011;1535;51.098;6.414;2022-11-21T03:05:31;16.83;;;15.43;;
3050;SDS011;1535;51.098;6.414;2022-11-21T03:07:58;16.63;;;15.10;;
3050;SDS011;1535;51.098;6.414;2022-11-21T03:10:26;17.10;;;14.63;;
3050;SDS011;1535;51.098;6.414;2022-11-21T03:12:53;16.27;;;14.77;;
3050;SDS011;1535;51.098;6.414;2022-11-21T03:15:25;15.53;;;14.10;;
3050;SDS011;1535;51.098;6.414;2022-11-21T03:17:54;18.77;;;13.80;;
3050;SDS011;1535;51.098;6.414;2022-11-21T03:20:21;16.03;;;14.30;;
3050;SDS011;1535;51.098;6.414;2022-11-21T03:22:48;15.03;;;13.50;;
3050;SDS011;1535;51.098;6.414;2022-11-21T03:25:15;15.80;;;13.83;;
3050;SDS011;1535;51.098;6.414;2022-11-21T03:27:42;16.07;;;14.57;;
3050;SDS011;1535;51.098;6.414;2022-11-21T03:30:09;23.60;;;12.97;;
3050;SDS011;1535;51.098;6.414;2022-11-21T03:32:37;14.00;;;12.83;;
3050;SDS011;1535;51.098;6.414;2022-11-21T03:35:07;15.43;;;13.67;;
3050;SDS011;1535;51.098;6.414;2022-11-21T03:37:34;14.93;;;13.10;;
3050;SDS011;1535;51.098;6.414;2022-11-21T03:40:01;14.10;;;12.83;;
3050;SDS011;1535;51.098;6.414;2022-11-21T03:42:29;22.03;;;13.60;;
3050;SDS011;1535;51.098;6.414;2022-11-21T03:44:57;14.23;;;13.00;;
3050;SDS011;1535;51.098;6.414;2022-11-21T03:47:23;14.13;;;12.83;;
3050;SDS011;1535;51.098;6.414;2022-11-21T03:49:51;17.20;;;13.07;;
3050;SDS011;1535;51.098;6.414;2022-11-21T03:52:19;13.37;;;12.00;;
3050;SDS011;1535;51.098;6.414;2022-11-21T03:54:47;14.20;;;12.23;;
3050;SDS011;1535;51.098;6.414;2022-11-21T03:57:15;15.50;;;12.57;;
3050;SDS011;1535;51.098;6.414;2022-11-21T03:59:42;14.07;;;12.73;;
3050;SDS011;1535;51.098;6.414;2022-11-21T04:02:09;13.60;;;12.10;;
3050;SDS011;1535;51.098;6.414;2022-11-21T04:04:35;14.90;;;12.00;;
3050;SDS011;1535;51.098;6.414;2022-11-21T04:07:02;14.10;;;12.63;;
3050;SDS011;1535;51.098;6.414;2022-11-21T04:09:30;14.27;;;12.90;;
3050;SDS011;1535;51.098;6.414;2022-11-21T04:11:57;17.43;;;12.37;;
3050;SDS011;1535;51.098;6.414;2022-11-21T04:14:25;13.77;;;12.07;;
3050;SDS011;1535;51.098;6.414;2022-11-21T04:16:52;13.13;;;11.90;;
3050;SDS011;1535;51.098;6.414;2022-11-21T04:19:18;18.43;;;12.37;;
3050;SDS011;1535;51.098;6.414;2022-11-21T04:21:45;13.17;;;11.93;;
3050;SDS011;1535;51.098;6.414;2022-11-21T04:24:12;13.33;;;12.07;;
3050;SDS011;1535;51.098;6.414;2022-11-21T04:26:41;12.77;;;11.67;;
3050;SDS011;1535;51.098;6.414;2022-11-21T04:29:09;12.20;;;11.07;;
3050;SDS011;1535;51.098;6.414;2022-11-21T04:31:36;12.20;;;11.20;;
3050;SDS011;1535;51.098;6.414;2022-11-21T04:34:05;11.80;;;10.70;;
3050;SDS011;1535;51.098;6.414;2022-11-21T04:36:32;16.00;;;10.63;;
3050;SDS011;1535;51.098;6.414;2022-11-21T04:38:59;16.60;;;12.30;;
3050;SDS011;1535;51.098;6.414;2022-11-21T04:41:25;20.43;;;13.73;;
3050;SDS011;1535;51.098;6.414;2022-11-21T04:43:53;12.87;;;10.73;;
3050;SDS011;1535;51.098;6.414;2022-11-21T04:46:20;13.03;;;11.77;;
3050;SDS011;1535;51.098;6.414;2022-11-21T04:48:48;14.53;;;12.03;;
3050;SDS011;1535;51.098;6.414;2022-11-21T04:51:14;22.00;;;12.60;;
3050;SDS011;1535;51.098;6.414;2022-11-21T04:53:41;15.17;;;11.87;;
3050;SDS011;1535;51.098;6.414;2022-11-21T04:56:08;16.37;;;12.47;;
3050;SDS011;1535;51.098;6.414;2022-11-21T04:58:38;13.20;;;11.90;;
3050;SDS011;1535;51.098;6.414;2022-11-21T05:01:07;13.80;;;12.37;;
3050;SDS011;1535;51.098;6.414;2022-11-21T05:03:34;17.97;;;12.87;;
3050;SDS011;1535;51.098;6.414;2022-11-21T05:06:01;15.23;;;13.03;;
3050;SDS011;1535;51.098;6.414;2022-11-21T05:08:29;16.60;;;14.30;;
3050;SDS011;1535;51.098;6.414;2022-11-21T05:10:55;19.50;;;14.77;;
3050;SDS011;1535;51.098;6.414;2022-11-21T05:13:40;22.30;;;16.67;;
3050;SDS011;1535;51.098;6.414;2022-11-21T05:16:08;23.13;;;15.60;;
3050;SDS011;1535;51.098;6.414;2022-11-21T05:18:35;25.60;;;16.57;;
3050;SDS011;1535;51.098;6.414;2022-11-21T05:21:03;24.03;;;17.07;;
3050;SDS011;1535;51.098;6.414;2022-11-21T05:23:30;22.37;;;18.50;;
3050;SDS011;1535;51.098;6.414;2022-11-21T05:25:57;19.53;;;17.37;;
3050;SDS011;1535;51.098;6.414;2022-11-21T05:28:24;25.70;;;22.30;;
3050;SDS011;1535;51.098;6.414;2022-11-21T05:30:50;24.30;;;21.80;;
3050;SDS011;1535;51.098;6.414;2022-11-21T05:33:18;26.37;;;21.33;;
3050;SDS011;1535;51.098;6.414;2022-11-21T05:35:45;24.57;;;22.17;;
3050;SDS011;1535;51.098;6.414;2022-11-21T05:38:12;27.57;;;23.17;;
3050;SDS011;1535;51.098;6.414;2022-11-21T05:40:38;26.87;;;22.53;;
3050;SDS011;1535;51.098;6.414;2022-11-21T05:43:05;32.07;;;24.30;;
3050;SDS011;1535;51.098;6.414;2022-11-21T05:45:50;25.23;;;22.73;;
3050;SDS011;1535;51.098;6.414;2022-11-21T05:48:18;26.83;;;22.80;;
3050;SDS011;1535;51.098;6.414;2022-11-21T05:50:46;36.00;;;25.77;;
3050;SDS011;1535;51.098;6.414;2022-11-21T05:53:14;29.80;;;24.97;;
3050;SDS011;1535;51.098;6.414;2022-11-21T05:55:41;26.87;;;23.77;;
3050;SDS011;1535;51.098;6.414;2022-11-21T05:58:08;26.37;;;23.73;;
3050;SDS011;1535;51.098;6.414;2022-11-21T06:00:35;31.37;;;25.60;;
3050;SDS011;1535;51.098;6.414;2022-11-21T06:03:03;29.80;;;26.87;;
3050;SDS011;1535;51.098;6.414;2022-11-21T06:05:50;30.13;;;26.90;;
3050;SDS011;1535;51.098;6.414;2022-11-21T06:08:17;27.53;;;24.73;;
3050;SDS011;1535;51.098;6.414;2022-11-21T06:10:44;34.63;;;25.13;;
3050;SDS011;1535;51.098;6.414;2022-11-21T06:13:11;26.20;;;23.70;;
3050;SDS011;1535;51.098;6.414;2022-11-21T06:15:48;32.07;;;23.83;;
3050;SDS011;1535;51.098;6.414;2022-11-21T06:18:15;26.07;;;23.33;;
3050;SDS011;1535;51.098;6.414;2022-11-21T06:20:43;26.37;;;23.57;;
3050;SDS011;1535;51.098;6.414;2022-11-21T06:23:12;24.47;;;22.10;;
3050;SDS011;1535;51.098;6.414;2022-11-21T06:25:39;24.83;;;22.20;;
3050;SDS011;1535;51.098;6.414;2022-11-21T06:28:05;35.63;;;21.23;;
3050;SDS011;1535;51.098;6.414;2022-11-21T06:30:32;23.30;;;21.10;;
3050;SDS011;1535;51.098;6.414;2022-11-21T06:33:01;21.73;;;19.70;;
3050;SDS011;1535;51.098;6.414;2022-11-21T06:35:28;21.73;;;19.63;;
3050;SDS011;1535;51.098;6.414;2022-11-21T06:37:55;21.73;;;19.50;;
3050;SDS011;1535;51.098;6.414;2022-11-21T06:40:23;22.70;;;20.57;;
3050;SDS011;1535;51.098;6.414;2022-11-21T06:42:50;20.90;;;19.10;;
3050;SDS011;1535;51.098;6.414;2022-11-21T06:45:17;21.70;;;19.50;;
3050;SDS011;1535;51.098;6.414;2022-11-21T06:47:43;21.43;;;19.17;;
3050;SDS011;1535;51.098;6.414;2022-11-21T06:50:10;22.43;;;20.00;;
3050;SDS011;1535;51.098;6.414;2022-11-21T06:52:37;24.23;;;20.77;;
3050;SDS011;1535;51.098;6.414;2022-11-21T06:55:04;23.53;;;21.03;;
3050;SDS011;1535;51.098;6.414;2022-11-21T06:57:32;22.40;;;20.20;;
3050;SDS011;1535;51.098;6.414;2022-11-21T07:02:42;32.57;;;21.90;;
3050;SDS011;1535;51.098;6.414;2022-11-21T07:05:09;26.13;;;20.33;;
3050;SDS011;1535;51.098;6.414;2022-11-21T07:07:35;21.27;;;19.33;;
3050;SDS011;1535;51.098;6.414;2022-11-21T07:10:02;23.03;;;20.90;;
3050;SDS011;1535;51.098;6.414;2022-11-21T07:12:30;22.73;;;20.43;;
3050;SDS011;1535;51.098;6.414;2022-11-21T07:15:15;28.30;;;21.43;;
3050;SDS011;1535;51.098;6.414;2022-11-21T07:17:43;25.30;;;20.27;;
3050;SDS011;1535;51.098;6.414;2022-11-21T07:20:10;23.10;;;20.70;;
3050;SDS011;1535;51.098;6.414;2022-11-21T07:22:37;18.93;;;17.23;;
3050;SDS011;1535;51.098;6.414;2022-11-21T07:25:04;19.70;;;17.90;;
3050;SDS011;1535;51.098;6.414;2022-11-21T07:27:31;20.77;;;18.60;;
3050;SDS011;1535;51.098;6.414;2022-11-21T07:29:58;17.73;;;15.90;;
3050;SDS011;1535;51.098;6.414;2022-11-21T07:32:26;19.47;;;17.67;;
3050;SDS011;1535;51.098;6.414;2022-11-21T07:34:53;18.50;;;17.07;;
3050;SDS011;1535;51.098;6.414;2022-11-21T07:37:20;20.37;;;18.77;;
3050;SDS011;1535;51.098;6.414;2022-11-21T07:39:46;19.93;;;17.77;;
3050;SDS011;1535;51.098;6.414;2022-11-21T07:42:13;20.73;;;18.73;;
3050;SDS011;1535;51.098;6.414;2022-11-21T07:44:40;19.77;;;17.77;;
3050;SDS011;1535;51.098;6.414;2022-11-21T07:47:07;21.67;;;19.53;;
3050;SDS011;1535;51.098;6.414;2022-11-21T07:49:35;20.63;;;18.70;;
3050;SDS011;1535;51.098;6.414;2022-11-21T07:52:03;22.50;;;20.20;;
3050;SDS011;1535;51.098;6.414;2022-11-21T07:54:30;22.40;;;19.27;;
3050;SDS011;1535;51.098;6.414;2022-11-21T07:56:57;24.93;;;21.20;;
3050;SDS011;1535;51.098;6.414;2022-11-21T07:59:23;21.37;;;19.37;;
3050;SDS011;1535;51.098;6.414;2022-11-21T08:01:50;22.20;;;19.77;;
3050;SDS011;1535;51.098;6.414;2022-11-21T08:04:17;21.53;;;19.13;;
3050;SDS011;1535;51.098;6.414;2022-11-21T08:06:46;26.77;;;19.80;;
3050;SDS011;1535;51.098;6.414;2022-11-21T08:09:13;24.43;;;19.43;;
3050;SDS011;1535;51.098;6.414;2022-11-21T08:11:39;26.93;;;19.70;;
3050;SDS011;1535;51.098;6.414;2022-11-21T08:14:06;22.57;;;18.07;;
3050;SDS011;1535;51.098;6.414;2022-11-21T08:16:33;24.97;;;19.07;;
3050;SDS011;1535;51.098;6.414;2022-11-21T08:18:59;24.30;;;17.07;;
3050;SDS011;1535;51.098;6.414;2022-11-21T08:21:27;25.00;;;22.30;;
3050;SDS011;1535;51.098;6.414;2022-11-21T08:23:56;34.50;;;25.23;;
3050;SDS011;1535;51.098;6.414;2022-11-21T08:26:23;29.10;;;26.33;;
3050;SDS011;1535;51.098;6.414;2022-11-21T08:28:50;32.30;;;29.17;;
3050;SDS011;1535;51.098;6.414;2022-11-21T08:31:17;29.97;;;27.10;;
3050;SDS011;1535;51.098;6.414;2022-11-21T08:33:44;42.93;;;29.67;;
3050;SDS011;1535;51.098;6.414;2022-11-21T08:36:10;30.33;;;27.30;;
3050;SDS011;1535;51.098;6.414;2022-11-21T08:38:37;32.73;;;27.13;;
3050;SDS011;1535;51.098;6.414;2022-11-21T08:41:07;34.80;;;29.50;;
3050;SDS011;1535;51.098;6.414;2022-11-21T08:43:54;30.70;;;27.60;;
3050;SDS011;1535;51.098;6.414;2022-11-21T08:46:21;31.47;;;28.00;;
3050;SDS011;1535;51.098;6.414;2022-11-21T08:48:51;28.10;;;25.10;;
3050;SDS011;1535;51.098;6.414;2022-11-21T08:51:19;29.17;;;26.17;;
3050;SDS011;1535;51.098;6.414;2022-11-21T08:53:45;29.17;;;26.47;;
3050;SDS011;1535;51.098;6.414;2022-11-21T08:56:14;29.73;;;27.30;;
3050;SDS011;1535;51.098;6.414;2022-11-21T08:58:41;30.03;;;27.00;;
3050;SDS011;1535;51.098;6.414;2022-11-21T09:01:08;33.93;;;25.77;;
3050;SDS011;1535;51.098;6.414;2022-11-21T09:03:35;28.90;;;25.90;;
3050;SDS011;1535;51.098;6.414;2022-11-21T09:06:02;29.70;;;26.90;;
3050;SDS011;1535;51.098;6.414;2022-11-21T09:08:29;29.67;;;27.07;;
3050;SDS011;1535;51.098;6.414;2022-11-21T09:10:57;28.47;;;25.60;;
3050;SDS011;1535;51.098;6.414;2022-11-21T09:13:25;36.73;;;26.53;;
3050;SDS011;1535;51.098;6.414;2022-11-21T09:15:53;27.37;;;24.87;;
3050;SDS011;1535;51.098;6.414;2022-11-21T09:18:40;27.50;;;24.60;;
3050;SDS011;1535;51.098;6.414;2022-11-21T09:21:07;26.10;;;23.57;;
3050;SDS011;1535;51.098;6.414;2022-11-21T09:23:34;27.03;;;24.57;;
3050;SDS011;1535;51.098;6.414;2022-11-21T09:26:01;26.17;;;23.80;;
3050;SDS011;1535;51.098;6.414;2022-11-21T09:28:29;29.00;;;23.60;;
3050;SDS011;1535;51.098;6.414;2022-11-21T09:30:56;31.30;;;23.50;;
3050;SDS011;1535;51.098;6.414;2022-11-21T09:33:23;26.23;;;22.23;;
3050;SDS011;1535;51.098;6.414;2022-11-21T09:35:49;23.07;;;21.07;;
3050;SDS011;1535;51.098;6.414;2022-11-21T09:38:16;22.67;;;20.53;;
3050;SDS011;1535;51.098;6.414;2022-11-21T09:40:44;23.40;;;21.50;;
3050;SDS011;1535;51.098;6.414;2022-11-21T09:43:28;24.00;;;21.87;;
3050;SDS011;1535;51.098;6.414;2022-11-21T09:46:09;23.30;;;21.10;;
3050;SDS011;1535;51.098;6.414;2022-11-21T09:48:40;23.37;;;20.40;;
3050;SDS011;1535;51.098;6.414;2022-11-21T09:51:14;21.10;;;19.07;;
3050;SDS011;1535;51.098;6.414;2022-11-21T09:53:47;21.67;;;19.90;;
3050;SDS011;1535;51.098;6.414;2022-11-21T09:56:20;22.10;;;20.03;;
3050;SDS011;1535;51.098;6.414;2022-11-21T09:58:50;21.87;;;20.07;;
3050;SDS011;1535;51.098;6.414;2022-11-21T10:01:30;21.87;;;19.70;;
3050;SDS011;1535;51.098;6.414;2022-11-21T10:03:57;36.27;;;20.63;;
3050;SDS011;1535;51.098;6.414;2022-11-21T10:06:28;18.53;;;16.53;;
3050;SDS011;1535;51.098;6.414;2022-11-21T10:08:57;17.47;;;16.10;;
3050;SDS011;1535;51.098;6.414;2022-11-21T10:11:35;15.93;;;14.50;;
3050;SDS011;1535;51.098;6.414;2022-11-21T10:14:25;16.70;;;14.90;;
3050;SDS011;1535;51.098;6.414;2022-11-21T10:17:03;15.40;;;13.87;;
3050;SDS011;1535;51.098;6.414;2022-11-21T10:19:42;15.50;;;14.10;;
3050;SDS011;1535;51.098;6.414;2022-11-21T10:22:23;16.20;;;14.10;;
3050;SDS011;1535;51.098;6.414;2022-11-21T10:25:02;16.03;;;14.20;;
3050;SDS011;1535;51.098;6.414;2022-11-21T10:27:38;15.37;;;14.00;;
3050;SDS011;1535;51.098;6.414;2022-11-21T10:30:14;17.43;;;13.00;;
3050;SDS011;1535;51.098;6.414;2022-11-21T10:32:42;17.73;;;13.87;;
3050;SDS011;1535;51.098;6.414;2022-11-21T10:35:13;17.80;;;14.17;;
3050;SDS011;1535;51.098;6.414;2022-11-21T10:37:43;15.10;;;12.90;;
3050;SDS011;1535;51.098;6.414;2022-11-21T10:40:22;14.03;;;13.07;;
3050;SDS011;1535;51.098;6.414;2022-11-21T10:42:56;13.40;;;12.40;;
3050;SDS011;1535;51.098;6.414;2022-11-21T10:45:47;13.50;;;12.33;;
3050;SDS011;1535;51.098;6.414;2022-11-21T10:48:13;16.03;;;11.97;;
3050;SDS011;1535;51.098;6.414;2022-11-21T10:50:42;13.60;;;12.20;;
3050;SDS011;1535;51.098;6.414;2022-11-21T10:53:20;19.67;;;14.33;;
3050;SDS011;1535;51.098;6.414;2022-11-21T10:56:07;17.40;;;15.17;;
3050;SDS011;1535;51.098;6.414;2022-11-21T10:58:41;14.23;;;12.70;;
3050;SDS011;1535;51.098;6.414;2022-11-21T11:01:21;13.07;;;11.70;;
3050;SDS011;1535;51.098;6.414;2022-11-21T11:04:06;12.90;;;11.90;;
3050;SDS011;1535;51.098;6.414;2022-11-21T11:06:41;13.20;;;12.37;;
3050;SDS011;1535;51.098;6.414;2022-11-21T11:09:20;15.60;;;14.10;;
3050;SDS011;1535;51.098;6.414;2022-11-21T11:11:48;14.47;;;13.10;;
3050;SDS011;1535;51.098;6.414;2022-11-21T11:14:16;14.20;;;13.13;;
3050;SDS011;1535;51.098;6.414;2022-11-21T11:16:58;14.10;;;13.10;;
3050;SDS011;1535;51.098;6.414;2022-11-21T11:19:26;15.37;;;14.07;;
3050;SDS011;1535;51.098;6.414;2022-11-21T11:21:54;15.50;;;14.30;;
3050;SDS011;1535;51.098;6.414;2022-11-21T11:24:23;15.63;;;14.40;;
3050;SDS011;1535;51.098;6.414;2022-11-21T11:26:55;15.03;;;13.97;;
3050;SDS011;1535;51.098;6.414;2022-11-21T11:29:24;22.27;;;16.30;;
3050;SDS011;1535;51.098;6.414;2022-11-21T11:31:54;16.70;;;15.37;;
3050;SDS011;1535;51.098;6.414;2022-11-21T11:34:24;19.40;;;16.13;;
3050;SDS011;1535;51.098;6.414;2022-11-21T11:36:55;15.30;;;14.30;;
3050;SDS011;1535;51.098;6.414;2022-11-21T11:39:36;16.60;;;15.30;;
3050;SDS011;1535;51.098;6.414;2022-11-21T11:48:31;16.53;;;15.40;;
3050;SDS011;1535;51.098;6.414;2022-11-21T11:51:02;18.07;;;16.43;;
3050;SDS011;1535;51.098;6.414;2022-11-21T11:53:39;15.37;;;14.40;;
3050;SDS011;1535;51.098;6.414;2022-11-21T11:56:12;16.13;;;15.00;;
3050;SDS011;1535;51.098;6.414;2022-11-21T11:58:43;15.07;;;14.13;;
3050;SDS011;1535;51.098;6.414;2022-11-21T12:01:14;17.27;;;15.73;;
3050;SDS011;1535;51.098;6.414;2022-11-21T12:03:47;15.93;;;15.03;;
3050;SDS011;1535;51.098;6.414;2022-11-21T12:06:23;16.20;;;15.00;;
3050;SDS011;1535;51.098;6.414;2022-11-21T12:08:51;18.23;;;16.57;;
3050;SDS011;1535;51.098;6.414;2022-11-21T12:11:24;15.80;;;14.70;;
3050;SDS011;1535;51.098;6.414;2022-11-21T12:14:17;16.93;;;15.83;;
3050;SDS011;1535;51.098;6.414;2022-11-21T12:17:09;15.93;;;15.00;;
3050;SDS011;1535;51.098;6.414;2022-11-21T12:19:37;16.37;;;15.37;;
3050;SDS011;1535;51.098;6.414;2022-11-21T12:22:07;15.77;;;14.77;;
3050;SDS011;1535;51.098;6.414;2022-11-21T12:24:36;15.30;;;14.30;;
3050;SDS011;1535;51.098;6.414;2022-11-21T12:27:04;15.77;;;14.70;;
3050;SDS011;1535;51.098;6.414;2022-11-21T12:29:48;17.03;;;15.83;;
3050;SDS011;1535;51.098;6.414;2022-11-21T12:32:43;14.90;;;14.00;;
3050;SDS011;1535;51.098;6.414;2022-11-21T12:35:25;15.50;;;14.60;;
3050;SDS011;1535;51.098;6.414;2022-11-21T12:38:04;17.33;;;15.67;;
3050;SDS011;1535;51.098;6.414;2022-11-21T12:40:42;15.20;;;14.20;;
3050;SDS011;1535;51.098;6.414;2022-11-21T12:43:21;14.80;;;13.90;;
3050;SDS011;1535;51.098;6.414;2022-11-21T12:45:54;15.00;;;14.00;;
3050;SDS011;1535;51.098;6.414;2022-11-21T12:48:34;15.63;;;14.63;;
3050;SDS011;1535;51.098;6.414;2022-11-21T12:54:49;15.80;;;14.90;;
3050;SDS011;1535;51.098;6.414;2022-11-21T12:57:25;16.43;;;15.10;;
3050;SDS011;1535;51.098;6.414;2022-11-21T13:00:03;15.70;;;14.83;;
3050;SDS011;1535;51.098;6.414;2022-11-21T13:02:38;16.03;;;14.77;;
3050;SDS011;1535;51.098;6.414;2022-11-21T13:05:22;16.23;;;15.30;;
3050;SDS011;1535;51.098;6.414;2022-11-21T13:07:52;17.00;;;15.90;;
3050;SDS011;1535;51.098;6.414;2022-11-21T13:10:26;17.13;;;16.00;;
3050;SDS011;1535;51.098;6.414;2022-11-21T13:12:57;16.63;;;15.37;;
3050;SDS011;1535;51.098;6.414;2022-11-21T13:15:28;16.63;;;15.60;;
3050;SDS011;1535;51.098;6.414;2022-11-21T13:18:01;16.33;;;15.33;;
3050;SDS011;1535;51.098;6.414;2022-11-21T13:20:44;17.97;;;16.77;;
3050;SDS011;1535;51.098;6.414;2022-11-21T13:26:06;18.23;;;16.47;;
3050;SDS011;1535;51.098;6.414;2022-11-21T13:29:09;18.97;;;17.13;;
3050;SDS011;1535;51.098;6.414;2022-11-21T13:31:37;25.60;;;16.33;;
3050;SDS011;1535;51.098;6.414;2022-11-21T13:34:09;16.50;;;14.83;;
3050;SDS011;1535;51.098;6.414;2022-11-21T13:37:04;17.07;;;15.43;;
3050;SDS011;1535;51.098;6.414;2022-11-21T13:39:35;15.50;;;14.70;;
3050;SDS011;1535;51.098;6.414;2022-11-21T13:42:12;16.83;;;15.33;;
3050;SDS011;1535;51.098;6.414;2022-11-21T13:44:58;16.40;;;15.27;;
3050;SDS011;1535;51.098;6.414;2022-11-21T13:50:44;15.77;;;14.73;;
3050;SDS011;1535;51.098;6.414;2022-11-21T13:56:39;16.00;;;15.10;;
3050;SDS011;1535;51.098;6.414;2022-11-21T13:59:28;17.33;;;15.80;;
3050;SDS011;1535;51.098;6.414;2022-11-21T14:05:10;19.10;;;17.77;;
3050;SDS011;1535;51.098;6.414;2022-11-21T14:07:52;17.13;;;15.93;;
3050;SDS011;1535;51.098;6.414;2022-11-21T14:10:28;19.40;;;16.27;;
3050;SDS011;1535;51.098;6.414;2022-11-21T14:12:58;17.63;;;16.03;;
3050;SDS011;1535;51.098;6.414;2022-11-21T14:15:27;16.43;;;15.10;;
3050;SDS011;1535;51.098;6.414;2022-11-21T14:18:00;16.00;;;14.70;;
3050;SDS011;1535;51.098;6.414;2022-11-21T14:20:27;17.57;;;16.17;;
3050;SDS011;1535;51.098;6.414;2022-11-21T14:23:02;15.83;;;14.67;;
3050;SDS011;1535;51.098;6.414;2022-11-21T14:25:34;16.03;;;14.70;;
3050;SDS011;1535;51.098;6.414;2022-11-21T14:28:08;16.77;;;15.23;;
3050;SDS011;1535;51.098;6.414;2022-11-21T14:30:38;17.73;;;15.97;;
3050;SDS011;1535;51.098;6.414;2022-11-21T14:33:26;16.83;;;15.43;;
3050;SDS011;1535;51.098;6.414;2022-11-21T14:35:56;18.20;;;15.80;;
3050;SDS011;1535;51.098;6.414;2022-11-21T14:38:26;16.47;;;15.37;;
3050;SDS011;1535;51.098;6.414;2022-11-21T14:43:48;16.20;;;14.83;;
3050;SDS011;1535;51.098;6.414;2022-11-21T14:46:18;15.50;;;14.60;;
3050;SDS011;1535;51.098;6.414;2022-11-21T14:48:46;17.90;;;15.30;;
3050;SDS011;1535;51.098;6.414;2022-11-21T14:51:13;17.80;;;15.60;;
3050;SDS011;1535;51.098;6.414;2022-11-21T14:53:44;16.27;;;14.63;;
3050;SDS011;1535;51.098;6.414;2022-11-21T14:56:18;16.37;;;14.80;;
3050;SDS011;1535;51.098;6.414;2022-11-21T14:58:46;17.20;;;15.50;;
3050;SDS011;1535;51.098;6.414;2022-11-21T15:01:18;17.83;;;14.20;;
3050;SDS011;1535;51.098;6.414;2022-11-21T15:03:53;15.57;;;14.00;;
3050;SDS011;1535;51.098;6.414;2022-11-21T15:06:21;16.47;;;14.97;;
3050;SDS011;1535;51.098;6.414;2022-11-21T15:08:50;15.43;;;14.27;;
3050;SDS011;1535;51.098;6.414;2022-11-21T15:11:18;15.73;;;14.03;;
3050;SDS011;1535;51.098;6.414;2022-11-21T15:13:48;14.87;;;13.60;;
3050;SDS011;1535;51.098;6.414;2022-11-21T15:16:19;15.63;;;14.37;;
3050;SDS011;1535;51.098;6.414;2022-11-21T15:18:48;15.57;;;14.43;;
3050;SDS011;1535;51.098;6.414;2022-11-21T15:21:15;15.63;;;14.43;;
3050;SDS011;1535;51.098;6.414;2022-11-21T15:23:42;14.77;;;13.70;;
3050;SDS011;1535;51.098;6.414;2022-11-21T15:28:53;14.93;;;13.80;;
3050;SDS011;1535;51.098;6.414;2022-11-21T15:31:21;13.67;;;12.77;;
3050;SDS011;1535;51.098;6.414;2022-11-21T15:33:58;15.40;;;14.10;;
3050;SDS011;1535;51.098;6.414;2022-11-21T15:36:26;15.13;;;14.23;;
3050;SDS011;1535;51.098;6.414;2022-11-21T15:38:54;14.73;;;13.93;;
3050;SDS011;1535;51.098;6.414;2022-11-21T15:41:28;15.20;;;13.70;;